Time;durP1;ratioP1;P1;durP2;ratioP2;P2;SDS_P1;SDS_P2;PMS_P1;PMS_P2;Temp;Humidity;BMP_temperature;BMP_pressure;BME280_temperature;BME280_humidity;BME280_pressure;Samples;Min_cycle;Max_cycle;Signal;HPM_P1;HPM_P2
2020/12/18 00:01:30;;;;;;;35.28;22.95;;;;;;;4.43;71.01;101873.30;1674362;84;21280;-41
2020/12/18 00:03:58;;;;;;;32.83;22.60;;;;;;;4.45;70.94;101868.01;1722631;81;21567;-39
2020/12/18 00:06:33;;;;;;;34.27;22.40;;;;;;;4.44;70.92;101866.27;1716115;81;21163;-43
2020/12/18 00:09:02;;;;;;;35.28;22.77;;;;;;;4.42;70.97;101868.92;1721775;82;21158;-38
2020/12/18 00:11:30;;;;;;;34.23;21.65;;;;;;;4.42;71.01;101871.56;1730498;81;21123;-37
2020/12/18 00:13:57;;;;;;;36.23;23.98;;;;;;;4.42;71.02;101867.59;1728796;81;21175;-40
2020/12/18 00:16:26;;;;;;;36.05;22.95;;;;;;;4.43;71.00;101867.14;1670333;84;21201;-38
2020/12/18 00:18:54;;;;;;;36.65;23.57;;;;;;;4.43;70.98;101870.66;1730511;81;21182;-40
2020/12/18 00:21:22;;;;;;;32.42;20.05;;;;;;;4.42;70.99;101867.59;1730266;81;21173;-39
2020/12/18 00:23:50;;;;;;;33.05;21.55;;;;;;;4.44;70.95;101865.82;1731612;81;21159;-40
2020/12/18 00:26:18;;;;;;;28.47;19.42;;;;;;;4.43;70.93;101862.73;1715427;81;21147;-39
2020/12/18 00:28:47;;;;;;;26.95;18.25;;;;;;;4.41;70.98;101863.64;1728862;81;21181;-38
2020/12/18 00:31:15;;;;;;;32.08;21.12;;;;;;;4.41;70.96;101864.55;1733624;81;21173;-39
2020/12/18 00:33:42;;;;;;;31.40;19.35;;;;;;;4.42;70.95;101857.48;1671769;84;21208;-41
2020/12/18 00:36:11;;;;;;;33.98;21.15;;;;;;;4.39;70.96;101850.92;1666013;84;21328;-41
2020/12/18 00:38:39;;;;;;;26.85;18.15;;;;;;;4.35;71.01;101852.70;1728292;81;21170;-44
2020/12/18 00:41:07;;;;;;;29.95;20.35;;;;;;;4.34;71.08;101853.61;1671805;84;21145;-38
2020/12/18 00:43:35;;;;;;;30.95;18.95;;;;;;;4.32;71.12;101850.97;1695030;82;21147;-41
2020/12/18 00:46:06;;;;;;;29.42;19.27;;;;;;;4.30;71.17;101850.11;1697949;82;21151;-41
2020/12/18 00:48:34;;;;;;;31.93;20.60;;;;;;;4.32;71.18;101854.06;1729633;81;21162;-43
2020/12/18 00:51:03;;;;;;;29.18;20.35;;;;;;;4.31;71.18;101842.63;1729060;81;21118;-40
2020/12/18 00:53:36;;;;;;;28.65;19.17;;;;;;;4.34;71.21;101847.88;1725399;81;21143;-44
2020/12/18 00:56:09;;;;;;;26.90;18.25;;;;;;;4.38;71.20;101852.66;1728487;81;21178;-40
2020/12/18 00:58:37;;;;;;;27.00;18.77;;;;;;;4.41;71.14;101839.87;1717345;81;21162;-42
2020/12/18 01:01:05;;;;;;;27.00;18.10;;;;;;;4.43;71.09;101846.02;1726500;81;21192;-42
2020/12/18 01:03:33;;;;;;;30.65;18.52;;;;;;;4.45;70.98;101844.23;1729544;81;21166;-42
2020/12/18 01:06:11;;;;;;;27.80;19.52;;;;;;;4.45;70.93;101842.45;1733953;81;21155;-40
2020/12/18 01:08:40;;;;;;;30.97;18.12;;;;;;;4.46;70.92;101843.33;1729065;81;21828;-40
2020/12/18 01:11:09;;;;;;;28.95;18.87;;;;;;;4.44;70.85;101842.05;1705161;81;21121;-39
2020/12/18 01:13:37;;;;;;;28.73;19.20;;;;;;;4.42;70.84;101848.23;1728812;81;21154;-42
2020/12/18 01:16:12;;;;;;;27.13;18.50;;;;;;;4.40;70.91;101840.77;1713270;81;21283;-41
2020/12/18 01:18:41;;;;;;;30.55;19.05;;;;;;;4.40;70.91;101836.36;1732555;81;21142;-41
2020/12/18 01:21:10;;;;;;;28.75;18.77;;;;;;;4.39;70.88;101836.39;1727770;81;21284;-43
2020/12/18 01:23:40;;;;;;;33.35;20.77;;;;;;;4.35;70.89;101824.97;1668147;84;21151;-41
2020/12/18 01:26:09;;;;;;;32.40;21.42;;;;;;;4.33;70.87;101823.69;1666227;84;21172;-44
2020/12/18 01:28:37;;;;;;;32.38;20.65;;;;;;;4.32;71.01;101822.38;1732267;81;21159;-41
2020/12/18 01:31:04;;;;;;;30.52;19.50;;;;;;;4.31;71.05;101818.86;1726412;81;21131;-41
2020/12/18 01:33:34;;;;;;;26.30;17.80;;;;;;;4.33;71.04;101816.19;1733997;81;21150;-40
2020/12/18 01:36:05;;;;;;;27.57;19.23;;;;;;;4.34;71.02;101821.91;1694182;82;21151;-39
2020/12/18 01:38:33;;;;;;;26.52;16.62;;;;;;;4.34;70.97;101820.14;1650939;84;22029;-39
2020/12/18 01:41:01;;;;;;;25.72;16.40;;;;;;;4.35;70.95;101811.77;1661579;84;21175;-38
2020/12/18 01:43:28;;;;;;;23.92;16.15;;;;;;;4.36;70.89;101802.97;1673387;83;21181;-39
2020/12/18 01:45:59;;;;;;;26.80;17.15;;;;;;;4.36;70.82;101810.89;1695840;82;21200;-39
2020/12/18 01:48:26;;;;;;;22.93;15.93;;;;;;;4.33;70.75;101817.08;1683806;83;21127;-41
2020/12/18 01:50:56;;;;;;;26.27;17.12;;;;;;;4.34;70.74;101817.95;1584185;86;21942;-40
2020/12/18 01:53:26;;;;;;;21.50;15.28;;;;;;;4.33;70.61;101816.19;1666274;84;21138;-39
2020/12/18 01:55:58;;;;;;;26.27;17.27;;;;;;;4.31;70.59;101818.00;1672340;84;21219;-39
2020/12/18 01:58:26;;;;;;;26.50;16.45;;;;;;;4.28;70.55;101816.68;1649819;84;21187;-42
2020/12/18 02:00:53;;;;;;;23.42;16.30;;;;;;;4.27;70.55;101813.63;1670079;84;21162;-40
2020/12/18 02:03:49;;;;;;;21.85;14.47;;;;;;;4.30;70.56;101817.09;1796038;79;23604;-42
2020/12/18 02:06:21;;;;;;;23.10;15.75;;;;;;;4.26;70.51;101814.08;1763287;80;21111;-42
2020/12/18 02:08:56;;;;;;;27.73;17.67;;;;;;;4.25;70.52;101813.63;1763477;79;21164;-42
2020/12/18 02:11:25;;;;;;;26.10;17.48;;;;;;;4.26;70.57;101814.53;1772675;80;21137;-43
2020/12/18 02:13:55;;;;;;;25.57;16.05;;;;;;;4.27;70.51;101817.59;1780223;79;21617;-41
2020/12/18 02:16:23;;;;;;;22.73;14.30;;;;;;;4.28;70.48;101807.02;1713326;81;21156;-41
2020/12/18 02:18:53;;;;;;;20.30;13.38;;;;;;;4.29;70.44;101817.13;1720514;82;21578;-41
2020/12/18 02:21:20;;;;;;;22.22;13.95;;;;;;;4.28;70.41;101811.40;1745363;81;21213;-41
2020/12/18 02:23:51;;;;;;;24.12;14.83;;;;;;;4.28;70.43;101807.02;1718338;82;21164;-43
2020/12/18 02:26:18;;;;;;;22.10;15.08;;;;;;;4.29;70.39;101814.49;1714591;82;21700;-41
2020/12/18 02:28:49;;;;;;;23.40;15.03;;;;;;;4.29;70.33;101813.17;1716154;82;21168;-40
2020/12/18 02:31:18;;;;;;;21.90;14.70;;;;;;;4.30;70.33;101812.27;1715177;81;21596;-43
2020/12/18 02:34:04;;;;;;;21.20;14.85;;;;;;;4.32;70.30;101809.16;1715721;82;21306;-40
2020/12/18 02:36:33;;;;;;;23.30;14.33;;;;;;;4.33;70.22;101808.26;1710789;83;21248;-38
2020/12/18 02:39:03;;;;;;;22.60;15.13;;;;;;;4.34;70.22;101804.75;1703922;83;21591;-38
2020/12/18 02:41:32;;;;;;;23.30;17.27;;;;;;;4.33;70.21;101810.48;1710317;83;21168;-42
2020/12/18 02:44:01;;;;;;;21.87;13.75;;;;;;;4.33;70.14;101805.20;1731151;81;21131;-42
2020/12/18 02:46:29;;;;;;;24.67;15.72;;;;;;;4.32;70.12;101808.71;1734197;81;21117;-43
2020/12/18 02:48:57;;;;;;;21.20;14.33;;;;;;;4.34;70.10;101806.06;1707964;83;21896;-42
2020/12/18 02:51:36;;;;;;;23.60;15.72;;;;;;;4.35;70.03;101799.87;1734860;81;21173;-41
2020/12/18 02:54:22;;;;;;;18.45;13.18;;;;;;;4.36;69.96;101800.33;1737430;81;21162;-42
2020/12/18 02:56:51;;;;;;;22.87;13.98;;;;;;;4.34;69.94;101804.30;1730508;81;21304;-41
2020/12/18 02:59:43;;;;;;;21.75;13.43;;;;;;;4.35;69.95;101802.52;1785196;79;23108;-41
2020/12/18 03:02:11;;;;;;;22.87;14.40;;;;;;;4.30;69.95;101802.56;1771527;79;21165;-41
2020/12/18 03:04:39;;;;;;;25.00;14.65;;;;;;;4.26;70.01;101802.20;1773727;79;21115;-41
2020/12/18 03:07:24;;;;;;;25.32;16.48;;;;;;;4.29;70.10;101799.97;1803861;78;23009;-47
2020/12/18 03:09:53;;;;;;;23.32;15.25;;;;;;;4.25;70.11;101801.75;1723826;81;21117;-39
2020/12/18 03:12:20;;;;;;;21.95;15.83;;;;;;;4.22;70.18;101796.95;1736261;82;21134;-41
2020/12/18 03:14:49;;;;;;;26.35;15.98;;;;;;;4.20;70.22;101807.53;1719568;81;21683;-42
2020/12/18 03:17:34;;;;;;;25.48;16.37;;;;;;;4.26;70.23;101805.29;1799956;78;23464;-40
2020/12/18 03:20:04;;;;;;;23.85;15.80;;;;;;;4.25;70.18;101807.48;1774266;79;21109;-43
2020/12/18 03:22:36;;;;;;;22.37;13.98;;;;;;;4.25;70.20;101801.75;1768406;79;21141;-42
2020/12/18 03:25:13;;;;;;;22.35;15.08;;;;;;;4.31;70.16;101799.05;1764516;79;23624;-42
2020/12/18 03:27:47;;;;;;;21.90;14.80;;;;;;;4.26;70.13;101808.80;1719728;82;21156;-41
2020/12/18 03:30:14;;;;;;;22.10;14.65;;;;;;;4.27;70.10;101798.65;1731871;82;21129;-42
2020/12/18 03:32:43;;;;;;;20.48;14.40;;;;;;;4.28;70.07;101805.70;1728990;80;21569;-41
2020/12/18 03:35:13;;;;;;;21.55;14.33;;;;;;;4.29;70.06;101802.16;1727251;82;21141;-42
2020/12/18 03:37:41;;;;;;;19.73;14.00;;;;;;;4.28;70.04;101799.52;1735573;82;21625;-42
2020/12/18 03:40:11;;;;;;;21.07;13.32;;;;;;;4.26;70.04;101800.01;1733605;80;21153;-41
2020/12/18 03:42:40;;;;;;;17.30;12.82;;;;;;;4.23;70.14;101800.02;1738421;80;21597;-42
2020/12/18 03:45:08;;;;;;;17.50;11.20;;;;;;;4.23;70.15;101805.30;1698385;82;21316;-41
2020/12/18 03:47:47;;;;;;;16.17;12.07;;;;;;;4.24;70.18;101803.11;1801638;78;23077;-40
2020/12/18 03:50:23;;;;;;;17.77;11.35;;;;;;;4.20;70.11;101806.20;1757098;80;21766;-41
2020/12/18 03:53:01;;;;;;;18.60;12.88;;;;;;;4.19;70.05;101807.11;1757814;79;22683;-42
2020/12/18 03:55:29;;;;;;;19.17;14.03;;;;;;;4.11;70.07;101806.33;1716558;82;21161;-41
2020/12/18 03:58:11;;;;;;;20.55;13.38;;;;;;;4.05;70.15;101802.42;1733956;80;21145;-40
2020/12/18 04:00:41;;;;;;;19.98;14.13;;;;;;;4.03;70.25;101801.13;1723913;80;21118;-40
2020/12/18 04:03:08;;;;;;;17.77;13.25;;;;;;;4.01;70.23;101795.44;1717434;82;21162;-40
2020/12/18 04:05:36;;;;;;;18.75;13.18;;;;;;;3.96;70.33;101798.58;1711347;82;21135;-41
2020/12/18 04:08:06;;;;;;;20.05;12.70;;;;;;;3.92;70.46;101800.35;1709838;83;21165;-40
2020/12/18 04:10:42;;;;;;;17.67;12.90;;;;;;;3.95;70.61;101795.48;1820336;77;23089;-42
2020/12/18 04:13:28;;;;;;;15.20;11.22;;;;;;;3.94;70.73;101795.94;1812490;77;21126;-42
2020/12/18 04:15:56;;;;;;;19.42;11.43;;;;;;;3.99;70.69;101803.81;1808261;77;21174;-40
2020/12/18 04:18:24;;;;;;;16.52;12.07;;;;;;;4.02;70.64;101807.28;1810429;77;21465;-40
2020/12/18 04:20:52;;;;;;;16.30;11.10;;;;;;;4.04;70.60;101792.77;1776229;78;21127;-40
2020/12/18 04:23:28;;;;;;;22.97;17.20;;;;;;;4.09;70.52;101795.77;1774940;79;38599;-41
2020/12/18 04:26:00;;;;;;;19.62;13.22;;;;;;;4.08;70.52;101804.59;1757571;79;21133;-41
2020/12/18 04:28:29;;;;;;;18.05;13.48;;;;;;;4.21;70.28;101802.70;1760013;80;21153;-40
2020/12/18 04:30:58;;;;;;;19.07;13.20;;;;;;;4.23;70.12;101800.02;1714582;80;21117;-41
2020/12/18 04:33:26;;;;;;;15.43;11.22;;;;;;;4.22;70.06;101793.00;1768068;79;21161;-40
2020/12/18 04:35:53;;;;;;;14.13;10.08;;;;;;;4.22;70.00;101803.56;1771822;79;21191;-40
2020/12/18 04:38:23;;;;;;;16.30;10.45;;;;;;;4.21;69.95;101801.38;1769315;80;21271;-39
2020/12/18 04:40:53;;;;;;;14.43;9.90;;;;;;;4.19;69.92;101800.52;1763541;80;21569;-41
2020/12/18 04:43:23;;;;;;;15.83;9.28;;;;;;;4.16;69.94;101797.91;1747420;80;21114;-39
2020/12/18 04:46:12;;;;;;;14.65;10.25;;;;;;;4.15;69.96;101801.88;1745565;80;21307;-41
2020/12/18 04:49:00;;;;;;;14.38;10.23;;;;;;;4.15;69.96;101798.78;1762405;79;21145;-41
2020/12/18 04:51:43;;;;;;;12.65;8.83;;;;;;;4.14;69.96;101796.18;1765794;79;21149;-41
2020/12/18 04:54:12;;;;;;;16.85;10.32;;;;;;;4.14;69.94;101804.97;1766556;79;21129;-41
2020/12/18 04:56:44;;;;;;;14.03;9.58;;;;;;;4.15;69.93;101800.55;1762718;79;21996;-40
2020/12/18 04:59:13;;;;;;;13.43;9.78;;;;;;;4.15;69.93;101801.88;1745147;80;21167;-40
2020/12/18 05:01:57;;;;;;;14.35;10.35;;;;;;;4.14;69.91;101802.33;1733764;80;21290;-56
2020/12/18 05:04:28;;;;;;;16.93;10.48;;;;;;;4.15;69.88;101809.80;1732060;80;21136;-40
2020/12/18 05:07:00;;;;;;;12.82;9.63;;;;;;;4.11;69.94;101811.61;1738417;80;21668;-42
2020/12/18 05:09:29;;;;;;;15.38;10.78;;;;;;;4.11;69.99;101815.57;1730465;80;21153;-40
2020/12/18 05:12:08;;;;;;;17.12;11.22;;;;;;;4.11;69.97;101819.08;1713492;82;21164;-57
2020/12/18 05:14:36;;;;;;;18.20;11.50;;;;;;;4.10;70.12;101815.98;1734299;80;21185;-40
2020/12/18 05:17:08;;;;;;;14.65;10.78;;;;;;;4.09;70.14;101815.57;1732153;82;21140;-43
2020/12/18 05:19:40;;;;;;;13.50;9.63;;;;;;;4.11;70.10;101820.85;1734377;80;21141;-41
2020/12/18 05:22:14;;;;;;;15.38;9.90;;;;;;;4.12;70.08;101822.59;1734153;80;21148;-43
2020/12/18 05:24:53;;;;;;;12.98;10.10;;;;;;;4.19;69.99;101819.45;1806581;78;23266;-42
2020/12/18 05:27:22;;;;;;;14.63;9.75;;;;;;;4.15;69.96;101829.15;1769478;79;21161;-46
2020/12/18 05:29:50;;;;;;;15.30;10.08;;;;;;;4.16;69.92;101826.05;1759646;80;21102;-39
2020/12/18 05:32:36;;;;;;;14.78;9.95;;;;;;;4.16;69.90;101826.05;1777665;80;21137;-40
2020/12/18 05:35:05;;;;;;;12.80;9.33;;;;;;;4.14;69.85;101830.05;1780629;80;21133;-42
2020/12/18 05:37:41;;;;;;;12.93;8.75;;;;;;;4.12;69.85;101830.51;1777332;80;21097;-40
2020/12/18 05:40:46;;;;;;;13.60;9.48;;;;;;;4.15;69.87;101829.60;1793471;78;23092;-42
2020/12/18 05:43:38;;;;;;;12.35;8.63;;;;;;;4.10;69.90;101834.92;1777484;80;21150;-44
2020/12/18 05:46:40;;;;;;;12.58;8.75;;;;;;;4.16;69.94;101828.70;1794186;78;23533;-42
2020/12/18 05:49:13;;;;;;;13.53;9.73;;;;;;;4.14;69.85;101833.14;1768594;79;21113;-39
2020/12/18 05:51:43;;;;;;;14.45;9.35;;;;;;;4.14;69.83;101830.50;1769299;80;21413;-42
2020/12/18 05:54:18;;;;;;;12.37;9.13;;;;;;;4.14;69.81;101831.83;1766826;80;21156;-40
2020/12/18 05:56:57;;;;;;;12.98;9.08;;;;;;;4.16;69.77;101826.95;1757124;79;22969;-43
2020/12/18 05:59:25;;;;;;;13.60;10.00;;;;;;;4.10;69.77;101832.28;1733673;80;21637;-42
2020/12/18 06:01:59;;;;;;;13.48;9.03;;;;;;;4.08;69.82;101832.32;1705763;82;21295;-42
2020/12/18 06:04:29;;;;;;;13.40;9.38;;;;;;;4.05;69.86;101830.14;1711641;82;21195;-39
2020/12/18 06:06:58;;;;;;;14.53;10.05;;;;;;;4.06;69.84;101831.45;1662812;83;21153;-41
2020/12/18 06:09:59;;;;;;;15.45;10.50;;;;;;;4.07;69.89;101826.59;1791543;78;23085;-41
2020/12/18 06:12:29;;;;;;;13.32;9.38;;;;;;;4.04;69.95;101831.91;1762927;80;21129;-41
2020/12/18 06:14:57;;;;;;;14.95;10.43;;;;;;;4.05;69.91;101829.69;1777242;79;21103;-42
2020/12/18 06:17:27;;;;;;;14.65;9.45;;;;;;;4.07;69.92;101837.15;1778990;79;21891;-44
2020/12/18 06:19:57;;;;;;;12.55;8.98;;;;;;;4.07;69.88;101835.83;1778516;79;21169;-41
2020/12/18 06:22:26;;;;;;;15.10;10.70;;;;;;;4.08;69.87;101834.96;1770920;79;21291;-43
2020/12/18 06:25:06;;;;;;;14.45;10.75;;;;;;;4.10;69.91;101838.43;1797483;78;22928;-42
2020/12/18 06:28:00;;;;;;;14.28;10.38;;;;;;;4.08;69.96;101843.30;1776820;80;21144;-38
2020/12/18 06:30:30;;;;;;;16.20;10.68;;;;;;;4.10;69.97;101852.09;1713385;81;21148;-42
2020/12/18 06:33:15;;;;;;;15.13;10.68;;;;;;;4.10;69.95;101846.35;1719936;81;21602;-41
2020/12/18 06:35:48;;;;;;;14.85;10.82;;;;;;;4.11;69.98;101853.41;1716510;81;21118;-42
2020/12/18 06:38:22;;;;;;;13.98;9.73;;;;;;;4.10;69.95;101846.80;1721563;81;21157;-42
2020/12/18 06:41:05;;;;;;;19.25;15.75;;;;;;;4.13;69.97;101850.73;1743058;78;28230;-54
2020/12/18 06:43:39;;;;;;;15.15;11.60;;;;;;;4.11;70.02;101850.77;1722495;80;21146;-39
2020/12/18 06:47:06;;;;;;;14.35;10.53;;;;;;;4.28;69.85;101851.91;1791282;78;23616;-40
2020/12/18 06:50:05;;;;;;;19.20;11.57;;;;;;;4.21;69.72;101851.97;1716106;81;21372;-39
2020/12/18 06:53:04;;;;;;;16.52;11.33;;;;;;;4.18;69.81;101859.92;1801311;78;22933;-41
2020/12/18 06:55:37;;;;;;;14.58;11.00;;;;;;;4.10;69.91;101863.97;1774384;79;21614;-37
2020/12/18 06:58:51;;;;;;;16.80;11.90;;;;;;;4.11;70.14;101861.78;1793961;78;23059;-42
2020/12/18 07:01:31;;;;;;;16.95;11.03;;;;;;;4.09;70.18;101871.02;1755829;80;21598;-38
2020/12/18 07:04:01;;;;;;;17.27;12.30;;;;;;;4.08;70.18;101864.00;1709388;83;21594;-39
2020/12/18 07:06:31;;;;;;;17.92;12.75;;;;;;;4.08;70.21;101865.73;1646477;83;21180;-39
2020/12/18 07:08:58;;;;;;;17.35;12.50;;;;;;;4.05;70.17;101867.09;1718452;82;21616;-42
2020/12/18 07:11:30;;;;;;;18.62;12.55;;;;;;;4.02;70.22;101865.81;1682653;83;21160;-43
2020/12/18 07:14:07;;;;;;;16.17;12.05;;;;;;;4.02;70.31;101867.13;1658324;83;21530;-41
2020/12/18 07:16:38;;;;;;;14.83;11.90;;;;;;;4.01;70.32;101866.27;1674668;83;21160;-40
2020/12/18 07:19:16;;;;;;;18.42;11.68;;;;;;;4.00;70.41;101864.49;1714220;82;21144;-42
2020/12/18 07:21:52;;;;;;;15.48;11.38;;;;;;;4.02;70.47;101864.49;1677562;82;21865;-42
2020/12/18 07:24:29;;;;;;;20.70;14.15;;;;;;;4.01;70.47;101864.08;1714574;82;21201;-42
2020/12/18 07:27:19;;;;;;;19.63;13.20;;;;;;;4.00;70.55;101868.91;1715323;82;21149;-44
2020/12/18 07:29:46;;;;;;;20.88;13.25;;;;;;;4.00;70.66;101862.30;1606881;86;21938;-44
2020/12/18 07:32:14;;;;;;;19.48;13.80;;;;;;;4.01;70.71;101865.40;1617409;86;21207;-41
2020/12/18 07:34:42;;;;;;;19.77;13.60;;;;;;;4.03;70.75;101868.45;1651551;85;21177;-42
2020/12/18 07:37:12;;;;;;;21.17;14.13;;;;;;;4.01;70.78;101860.98;1645205;85;21242;-43
2020/12/18 07:39:40;;;;;;;23.55;14.40;;;;;;;4.01;70.89;101869.36;1648062;85;21724;-44
2020/12/18 07:42:07;;;;;;;22.20;15.85;;;;;;;3.98;70.74;101866.30;1624821;85;21225;-42
2020/12/18 07:44:42;;;;;;;22.90;15.10;;;;;;;3.96;70.77;101860.61;1762826;79;23120;-41
2020/12/18 07:47:09;;;;;;;26.40;17.05;;;;;;;3.93;70.88;101864.56;1734196;80;21263;-43
2020/12/18 07:49:37;;;;;;;19.37;15.18;;;;;;;3.91;70.98;101867.23;1737407;80;21166;-42
2020/12/18 07:52:07;;;;;;;18.65;13.75;;;;;;;3.93;71.04;101869.84;1734190;80;21150;-39
2020/12/18 07:54:35;;;;;;;;;;;;;;;3.93;70.97;101873.81;1735368;80;21887;-43
2020/12/18 07:57:08;;;;;;;21.15;14.47;;;;;;;3.90;70.93;101868.98;1730709;80;20178;-44
2020/12/18 07:59:35;;;;;;;20.70;13.93;;;;;;;3.86;70.87;101874.33;1738740;80;21542;-40
2020/12/18 08:02:03;;;;;;;24.60;14.65;;;;;;;3.84;70.99;101866.86;1739452;80;21596;-39
2020/12/18 08:04:31;;;;;;;21.75;14.80;;;;;;;3.83;70.94;101867.73;1733030;80;21584;-42
2020/12/18 08:07:02;;;;;;;;;;;;;;;3.78;70.95;101866.89;1734513;80;21546;-42
2020/12/18 08:09:31;;;;;;;17.15;12.13;;;;;;;3.75;71.12;101869.11;1739186;80;20329;-43
2020/12/18 08:12:00;;;;;;;20.65;14.65;;;;;;;3.75;71.30;101866.92;1743239;80;21306;-42
2020/12/18 08:14:28;;;;;;;18.82;13.08;;;;;;;3.74;71.30;101871.78;1735587;80;21177;-40
2020/12/18 08:16:55;;;;;;;20.32;13.50;;;;;;;3.75;71.29;101868.25;1745711;80;21148;-41
2020/12/18 08:19:23;;;;;;;20.70;13.43;;;;;;;3.77;71.28;101863.84;1737885;80;21134;-42
2020/12/18 08:21:51;;;;;;;19.35;13.00;;;;;;;3.79;71.23;101873.49;1735131;80;21138;-37
2020/12/18 08:24:27;;;;;;;21.60;14.15;;;;;;;3.81;71.14;101870.40;1697727;80;21406;-41
2020/12/18 08:27:09;;;;;;;29.27;20.65;;;;;;;3.80;71.15;101871.27;1750106;80;21145;-40
2020/12/18 08:29:39;;;;;;;21.30;14.43;;;;;;;3.80;71.18;101869.08;1739939;80;21142;-44
2020/12/18 08:32:07;;;;;;;21.35;13.25;;;;;;;3.81;71.19;101873.49;1736515;80;21145;-44
2020/12/18 08:34:35;;;;;;;20.32;13.30;;;;;;;3.81;71.27;101867.77;1740643;80;21586;-43
2020/12/18 08:37:03;;;;;;;28.20;19.37;;;;;;;3.85;71.30;101871.23;1739444;80;21153;-42
2020/12/18 08:39:32;;;;;;;27.35;18.95;;;;;;;3.86;71.24;101867.73;1740230;80;21546;-44
2020/12/18 08:42:00;;;;;;;18.92;13.22;;;;;;;3.85;71.24;101864.19;1741986;80;21161;-44
2020/12/18 08:44:41;;;;;;;19.92;11.78;;;;;;;3.86;71.13;101855.40;1748708;80;21148;-43
2020/12/18 08:47:24;;;;;;;18.95;12.25;;;;;;;3.89;71.09;101862.41;1744396;80;21481;-40
2020/12/18 08:49:54;;;;;;;17.12;11.45;;;;;;;3.86;71.17;101853.21;1755674;80;21141;-44
2020/12/18 08:52:26;;;;;;;17.85;10.85;;;;;;;3.81;71.07;101858.52;1748586;80;21118;-43
2020/12/18 08:55:04;;;;;;;17.37;11.78;;;;;;;3.81;71.16;101855.02;1751851;80;21148;-40
2020/12/18 08:57:32;;;;;;;18.52;11.08;;;;;;;3.83;71.24;101853.22;1755443;80;21133;-40
2020/12/18 09:00:19;;;;;;;17.48;12.53;;;;;;;3.86;71.32;101851.89;1742691;80;21268;-41
2020/12/18 09:02:57;;;;;;;19.32;12.35;;;;;;;3.86;71.34;101850.58;1707750;82;21175;-43
2020/12/18 09:05:32;;;;;;;20.23;14.03;;;;;;;3.87;71.38;101843.94;1695042;83;21162;-40
2020/12/18 09:08:10;;;;;;;17.02;11.63;;;;;;;3.90;71.31;101839.08;1707936;82;21393;-42
2020/12/18 09:10:44;;;;;;;15.53;10.98;;;;;;;3.90;70.92;101837.30;1685903;83;21168;-42
2020/12/18 09:13:21;;;;;;;13.72;9.90;;;;;;;3.89;70.91;101834.25;1692439;83;21184;-42
2020/12/18 09:15:54;;;;;;;14.15;9.70;;;;;;;3.90;70.89;101824.11;1685351;83;21151;-43
2020/12/18 09:18:24;;;;;;;11.80;8.58;;;;;;;3.93;70.94;101825.88;1698712;82;21182;-40
2020/12/18 09:20:52;;;;;;;12.28;8.60;;;;;;;3.96;70.98;101823.20;1683450;83;21153;-40
2020/12/18 09:23:31;;;;;;;11.33;7.70;;;;;;;3.96;70.93;101820.56;1684432;83;21194;-41
2020/12/18 09:26:00;;;;;;;11.30;7.78;;;;;;;3.98;70.88;101821.42;1683368;83;21186;-41
2020/12/18 09:28:30;;;;;;;12.58;8.40;;;;;;;3.98;70.71;101820.52;1688179;83;21680;-41
2020/12/18 09:30:58;;;;;;;12.95;9.28;;;;;;;3.99;70.58;101824.48;1733313;81;21169;-41
2020/12/18 09:33:27;;;;;;;12.28;8.85;;;;;;;4.00;70.54;101823.58;1734314;81;21264;-43
2020/12/18 09:36:09;;;;;;;26.07;18.85;;;;;;;4.02;70.63;101827.53;1727759;81;21134;-42
2020/12/18 09:38:42;;;;;;;20.00;15.00;;;;;;;4.01;70.33;101825.34;1727431;81;21546;-42
2020/12/18 09:41:21;;;;;;;27.77;18.85;;;;;;;3.98;70.21;101813.92;1723611;81;21114;-44
2020/12/18 09:43:49;;;;;;;14.90;10.23;;;;;;;3.98;70.28;101816.56;1731736;81;21150;-43
2020/12/18 09:46:23;;;;;;;12.88;7.97;;;;;;;3.98;70.35;101813.50;1724605;81;21161;-41
2020/12/18 09:48:50;;;;;;;10.45;7.00;;;;;;;3.99;70.35;101811.73;1719119;81;21127;-43
2020/12/18 09:51:19;;;;;;;12.80;8.03;;;;;;;3.98;70.16;101812.19;1722927;81;21154;-40
2020/12/18 09:53:48;;;;;;;10.80;7.62;;;;;;;3.98;70.24;101818.78;1720911;81;21272;-41
2020/12/18 09:56:16;;;;;;;10.75;7.75;;;;;;;3.98;70.28;101812.61;1722301;81;21435;-43
2020/12/18 09:59:09;;;;;;;9.78;6.47;;;;;;;3.97;70.27;101815.70;1702139;81;21106;-40
2020/12/18 10:02:06;;;;;;;9.70;6.47;;;;;;;3.98;70.15;101806.91;1661218;84;21235;-41
2020/12/18 10:04:34;;;;;;;8.35;5.85;;;;;;;3.98;69.89;101806.91;1658694;84;21195;-40
2020/12/18 10:07:01;;;;;;;8.70;5.80;;;;;;;3.98;69.64;101808.64;1653616;84;21172;-43
2020/12/18 10:09:31;;;;;;;9.38;6.08;;;;;;;3.96;69.53;101803.85;1640056;85;21196;-47
2020/12/18 10:12:00;;;;;;;6.70;4.95;;;;;;;3.95;69.35;101802.08;1659399;84;21164;-42
2020/12/18 10:14:27;;;;;;;9.55;5.75;;;;;;;3.92;69.22;101797.71;1660587;84;22111;-43
2020/12/18 10:16:55;;;;;;;7.65;5.12;;;;;;;3.90;69.32;101800.80;1661552;84;21632;-39
2020/12/18 10:19:22;;;;;;;6.65;4.92;;;;;;;3.91;69.36;101798.62;1660909;84;21175;-40
2020/12/18 10:21:50;;;;;;;6.75;5.37;;;;;;;3.94;69.39;101807.81;1659613;84;21607;-42
2020/12/18 10:24:17;;;;;;;7.95;5.55;;;;;;;3.96;69.47;101809.13;1655980;84;21757;-43
2020/12/18 10:26:48;;;;;;;7.17;4.70;;;;;;;3.97;69.55;101798.54;1658343;84;21180;-40
2020/12/18 10:29:16;;;;;;;9.35;5.33;;;;;;;3.95;69.29;101796.36;1659220;84;21176;-43
2020/12/18 10:31:43;;;;;;;7.50;5.28;;;;;;;3.94;69.31;101797.26;1660302;84;21170;-41
2020/12/18 10:34:11;;;;;;;6.78;5.12;;;;;;;3.96;69.36;101793.30;1662552;84;21144;-41
2020/12/18 10:36:38;;;;;;;6.60;4.83;;;;;;;3.96;69.20;101797.25;1660212;84;21153;-42
2020/12/18 10:39:06;;;;;;;9.43;5.87;;;;;;;3.94;69.13;101795.94;1657175;84;21172;-41
2020/12/18 10:41:33;;;;;;;8.58;6.47;;;;;;;3.95;69.22;101794.16;1660782;84;21212;-40
2020/12/18 10:44:02;;;;;;;8.58;6.53;;;;;;;3.95;69.29;101786.25;1655818;84;21188;-43
2020/12/18 10:46:41;;;;;;;7.65;5.90;;;;;;;3.97;69.36;101785.80;1663588;84;22110;-44
2020/12/18 10:49:15;;;;;;;8.60;5.65;;;;;;;3.99;69.19;101784.02;1671768;84;21178;-40
2020/12/18 10:51:44;;;;;;;9.03;6.22;;;;;;;4.00;69.24;101784.44;1674884;82;21180;-40
2020/12/18 10:54:11;;;;;;;7.15;5.47;;;;;;;4.02;69.23;101778.70;1688076;82;21689;-38
2020/12/18 10:56:55;;;;;;;9.55;6.47;;;;;;;4.04;69.20;101776.47;1687833;82;21146;-42
2020/12/18 10:59:23;;;;;;;8.18;6.40;;;;;;;4.08;69.34;101778.20;1692363;82;21651;-41
2020/12/18 11:01:54;;;;;;;9.48;6.55;;;;;;;4.10;69.25;101777.70;1659271;84;21169;-41
2020/12/18 11:04:21;;;;;;;10.40;7.90;;;;;;;4.11;69.22;101775.97;1692465;82;21169;-41
2020/12/18 11:06:49;;;;;;;11.48;7.65;;;;;;;4.13;69.11;101763.59;1687349;82;21202;-39
2020/12/18 11:09:16;;;;;;;9.93;7.25;;;;;;;4.14;68.80;101771.09;1688829;82;21149;-43
2020/12/18 11:11:45;;;;;;;12.58;9.13;;;;;;;4.12;68.73;101776.38;1686488;82;21173;-40
2020/12/18 11:14:13;;;;;;;13.62;9.65;;;;;;;4.12;68.78;101775.93;1682874;82;21161;-38
2020/12/18 11:16:41;;;;;;;12.10;8.90;;;;;;;4.14;68.85;101768.45;1659605;84;21171;-38
2020/12/18 11:19:08;;;;;;;11.35;8.35;;;;;;;4.15;68.87;101770.19;1677106;83;21178;-43
2020/12/18 11:21:37;;;;;;;12.28;9.10;;;;;;;4.15;68.95;101763.14;1681757;83;21271;-40
2020/12/18 11:24:05;;;;;;;11.93;8.15;;;;;;;4.15;68.68;101759.17;1686929;83;21173;-42
2020/12/18 11:26:35;;;;;;;12.03;9.15;;;;;;;4.14;68.79;101762.72;1684585;83;21202;-38
2020/12/18 11:29:10;;;;;;;11.65;8.45;;;;;;;4.13;68.76;101764.91;1683824;83;21166;-44
2020/12/18 11:31:41;;;;;;;10.48;8.48;;;;;;;4.11;68.84;101764.95;1659538;83;22029;-43
2020/12/18 11:34:09;;;;;;;10.82;8.20;;;;;;;4.12;68.83;101769.78;1681582;83;21157;-44
2020/12/18 11:36:37;;;;;;;12.03;8.63;;;;;;;4.13;68.83;101772.84;1674970;83;21553;-42
2020/12/18 11:39:05;;;;;;;11.68;9.63;;;;;;;4.10;68.60;101765.83;1679346;83;21622;-43
2020/12/18 11:41:33;;;;;;;11.75;8.78;;;;;;;4.03;68.48;101762.85;1681252;83;21177;-41
2020/12/18 11:44:01;;;;;;;10.43;8.33;;;;;;;3.98;68.62;101767.73;1690852;82;21304;-43
2020/12/18 11:46:28;;;;;;;10.85;8.40;;;;;;;3.99;68.86;101769.50;1705666;82;21196;-40